VSA weather

Carlos Rovirosa PĂ©rez International Airport
Villahermosa, Tabasco, Mexico

Public forecast

Using degrees Celsius for public forecast. Weather courtesy of forecast.io.

METAR (pilot weather report)

Report is more than 2 hours old.

Retrieved 2017/10/22 04:43 UTC (5 hours ago):

MMVA 220443Z 15010KT 5SM SCT020CB BKN150 25/25 A2995 RMK 8/360 VRB CONDS

TAF (pilot weather forecast)

Forecast is more than 12 hours old.

Retrieved 2017/10/20 18:15 UTC (2 days ago):

TAF MMVA 201712Z 2018/2118 06006KT 6SM HZ BKN015 BKN220 FM202000 03012KT 6SM HZ BKN020CB BKN100 TEMPO 2022/2102 5SM TSRA FM210300 03005KT P6SM SCT020CB BKN100 PROB40 2103/2107 6SM -RA FM210800 12005KT 6SM HZ BKN015 BKN080 FM211000 00000KT 3SM BR HZ BKN010 TEMPO 2111/2115 1/2SM FG VV003 FM211600 12005KT 5SM HZ BKN015 BKN080